createdAt,value
2018-03-31T00:02:09.860Z,4.15
2018-03-31T00:04:38.107Z,5.40
2018-03-31T00:07:05.597Z,4.57
2018-03-31T00:09:33.834Z,5.72
2018-03-31T00:12:01.318Z,5.12
2018-03-31T00:14:29.575Z,5.28
2018-03-31T00:16:57.062Z,6.20
2018-03-31T00:19:25.426Z,5.40
2018-03-31T00:21:53.676Z,4.40
2018-03-31T00:24:21.918Z,4.30
2018-03-31T00:26:49.395Z,5.25
2018-03-31T00:29:16.868Z,5.60
2018-03-31T00:31:44.459Z,4.50
2018-03-31T00:34:11.940Z,4.87
2018-03-31T00:36:39.489Z,4.50
2018-03-31T00:39:06.969Z,4.57
2018-03-31T00:41:34.447Z,4.95
2018-03-31T00:44:02.074Z,4.40
2018-03-31T00:46:29.630Z,5.25
2018-03-31T00:48:57.195Z,4.53
2018-03-31T00:51:24.649Z,4.20
2018-03-31T00:53:52.128Z,5.10
2018-03-31T00:56:19.618Z,5.15
2018-03-31T00:58:47.938Z,4.80
2018-03-31T01:01:15.401Z,4.50
2018-03-31T01:03:42.912Z,5.12
2018-03-31T01:06:11.337Z,5.50
2018-03-31T01:08:38.853Z,5.10
2018-03-31T01:11:06.341Z,6.60
2018-03-31T01:13:33.803Z,5.05
2018-03-31T01:16:01.287Z,5.32
2018-03-31T01:18:28.774Z,6.28
2018-03-31T01:20:57.048Z,4.90
2018-03-31T01:23:25.295Z,5.47
2018-03-31T01:25:52.776Z,5.70
2018-03-31T01:28:21.024Z,5.43
2018-03-31T01:30:48.508Z,6.03
2018-03-31T01:33:16.754Z,5.80
2018-03-31T01:35:44.284Z,6.47
2018-03-31T01:38:11.796Z,5.37
2018-03-31T01:40:40.017Z,6.43
2018-03-31T01:43:07.563Z,6.15
2018-03-31T01:45:35.027Z,6.15
2018-03-31T01:48:02.610Z,6.30
2018-03-31T01:50:30.069Z,6.55
2018-03-31T01:52:57.615Z,6.35
2018-03-31T01:55:25.156Z,7.95
2018-03-31T01:57:52.623Z,7.53
2018-03-31T02:00:20.127Z,8.48
2018-03-31T02:02:47.684Z,7.45
2018-03-31T02:05:15.941Z,9.43
2018-03-31T02:07:43.414Z,10.13
2018-03-31T02:10:11.763Z,9.65
2018-03-31T02:12:39.276Z,10.52
2018-03-31T02:15:06.807Z,9.80
2018-03-31T02:17:35.031Z,9.40
2018-03-31T02:20:02.522Z,9.68
2018-03-31T02:22:30.758Z,9.15
2018-03-31T02:24:58.247Z,10.60
2018-03-31T02:27:25.700Z,10.43
2018-03-31T02:29:54.712Z,8.90
2018-03-31T02:32:22.944Z,12.18
2018-03-31T02:34:50.432Z,11.65
2018-03-31T02:37:17.974Z,11.02
2018-03-31T02:39:45.463Z,10.95
2018-03-31T02:42:13.713Z,10.20
2018-03-31T02:44:41.193Z,12.60
2018-03-31T02:47:09.453Z,12.90
2018-03-31T02:49:37.065Z,13.02
2018-03-31T02:52:04.571Z,11.20
2018-03-31T02:54:32.059Z,12.00
2018-03-31T02:56:59.594Z,11.15
2018-03-31T02:59:27.205Z,11.85
2018-03-31T03:01:54.863Z,10.40
2018-03-31T03:04:22.375Z,10.75
2018-03-31T03:06:50.617Z,10.88
2018-03-31T03:09:18.104Z,10.80
2018-03-31T03:11:46.322Z,12.70
2018-03-31T03:14:13.878Z,13.77
2018-03-31T03:16:41.367Z,13.20
2018-03-31T03:19:08.866Z,13.62
2018-03-31T03:21:36.348Z,12.45
2018-03-31T03:24:03.858Z,11.12
2018-03-31T03:26:32.108Z,10.05
2018-03-31T03:28:59.648Z,10.10
2018-03-31T03:31:27.154Z,9.90
2018-03-31T03:33:55.518Z,8.55
2018-03-31T03:36:23.007Z,9.73
2018-03-31T03:38:50.509Z,10.00
2018-03-31T03:41:19.010Z,8.82
2018-03-31T03:43:46.491Z,11.10
2018-03-31T03:46:13.974Z,10.77
2018-03-31T03:48:41.461Z,9.57
2018-03-31T03:51:08.957Z,9.52
2018-03-31T03:53:37.193Z,10.15
2018-03-31T03:56:04.717Z,9.13
2018-03-31T03:58:32.175Z,9.15
2018-03-31T04:00:59.679Z,9.10
2018-03-31T04:03:27.148Z,9.32
2018-03-31T04:05:54.644Z,9.57
2018-03-31T04:08:22.183Z,9.68
2018-03-31T04:10:49.717Z,11.05
2018-03-31T04:13:17.973Z,9.63
2018-03-31T04:15:46.472Z,10.60
2018-03-31T04:18:14.706Z,9.55
2018-03-31T04:20:42.184Z,10.10
2018-03-31T04:23:09.759Z,10.38
2018-03-31T04:25:38.082Z,10.85
2018-03-31T04:28:05.667Z,10.38
2018-03-31T04:30:33.109Z,9.52
2018-03-31T04:33:00.652Z,10.23
2018-03-31T04:35:28.114Z,10.15
2018-03-31T04:37:55.627Z,9.57
2018-03-31T04:40:23.848Z,10.07
2018-03-31T04:42:51.356Z,10.57
2018-03-31T04:45:19.590Z,10.40
2018-03-31T04:47:47.139Z,10.10
2018-03-31T04:50:15.407Z,10.52
2018-03-31T04:52:42.864Z,9.80
2018-03-31T04:55:10.383Z,10.30
2018-03-31T04:57:38.629Z,9.30
2018-03-31T05:00:06.158Z,9.80
2018-03-31T05:02:34.196Z,10.00
2018-03-31T05:05:01.709Z,11.65
2018-03-31T05:07:29.166Z,10.27
2018-03-31T05:09:56.718Z,10.02
2018-03-31T05:12:24.356Z,10.35
2018-03-31T05:14:52.017Z,10.10
2018-03-31T05:17:19.479Z,11.23
2018-03-31T05:19:47.033Z,11.80
2018-03-31T05:22:14.696Z,11.38
2018-03-31T05:24:42.356Z,11.38
2018-03-31T05:27:09.901Z,11.27
2018-03-31T05:29:37.553Z,11.68
2018-03-31T05:32:05.487Z,10.98
2018-03-31T05:34:32.977Z,11.48
2018-03-31T05:37:00.487Z,11.55
2018-03-31T05:39:27.967Z,10.55
2018-03-31T05:41:56.431Z,10.75
2018-03-31T05:44:24.052Z,10.57
2018-03-31T05:46:51.510Z,11.27
2018-03-31T05:49:19.412Z,11.27
2018-03-31T05:51:46.882Z,10.35
2018-03-31T05:54:15.231Z,10.32
2018-03-31T05:56:42.725Z,10.75
2018-03-31T05:59:10.231Z,11.27
2018-03-31T06:01:37.700Z,11.68
2018-03-31T06:04:05.241Z,10.90
2018-03-31T06:06:32.832Z,10.52
2018-03-31T06:09:01.009Z,9.75
2018-03-31T06:11:28.447Z,11.23
2018-03-31T06:13:55.953Z,11.15
2018-03-31T06:16:23.445Z,10.27
2018-03-31T06:18:50.915Z,11.18
2018-03-31T06:21:18.393Z,10.50
2018-03-31T06:23:46.665Z,10.70
2018-03-31T06:26:14.913Z,10.95
2018-03-31T06:28:42.442Z,12.15
2018-03-31T06:31:10.099Z,12.55
2018-03-31T06:33:37.590Z,11.90
2018-03-31T06:36:05.064Z,11.07
2018-03-31T06:38:33.316Z,12.43
2018-03-31T06:41:00.790Z,11.85
2018-03-31T06:43:29.042Z,11.50
2018-03-31T06:45:56.561Z,12.63
2018-03-31T06:48:24.168Z,12.50
2018-03-31T06:50:51.703Z,13.07
2018-03-31T06:53:19.196Z,10.15
2018-03-31T06:55:46.769Z,12.57
2018-03-31T06:58:14.290Z,11.35
2018-03-31T07:00:41.757Z,11.57
2018-03-31T07:03:09.265Z,10.77
2018-03-31T07:05:36.775Z,10.35
2018-03-31T07:08:04.295Z,10.88
2018-03-31T07:10:31.968Z,10.45
2018-03-31T07:12:59.999Z,9.75
2018-03-31T07:15:27.874Z,10.90
2018-03-31T07:17:55.397Z,10.65
2018-03-31T07:20:23.276Z,10.40
2018-03-31T07:22:51.700Z,10.70
2018-03-31T07:25:19.215Z,11.82
2018-03-31T07:27:46.763Z,12.00
2018-03-31T07:32:48.984Z,10.55
2018-03-31T07:35:16.478Z,9.38
2018-03-31T07:37:44.002Z,10.85
2018-03-31T07:40:11.480Z,11.98
2018-03-31T07:42:38.994Z,10.98
2018-03-31T07:45:06.686Z,10.65
2018-03-31T07:47:34.715Z,9.85
2018-03-31T07:50:03.048Z,11.15
2018-03-31T07:52:30.591Z,11.65
2018-03-31T07:54:58.095Z,12.00
2018-03-31T07:57:26.697Z,12.68
2018-03-31T07:59:54.255Z,12.63
2018-03-31T08:02:21.780Z,10.43
2018-03-31T08:04:49.255Z,11.67
2018-03-31T08:07:17.768Z,11.45
2018-03-31T08:09:45.324Z,11.15
2018-03-31T08:12:12.911Z,12.10
2018-03-31T08:14:40.434Z,12.30
2018-03-31T08:17:07.970Z,11.98
2018-03-31T08:19:35.523Z,12.85
2018-03-31T08:22:03.027Z,13.20
2018-03-31T08:24:30.539Z,12.52
2018-03-31T08:26:58.003Z,13.48
2018-03-31T08:29:26.333Z,12.37
2018-03-31T08:31:53.842Z,12.82
2018-03-31T08:34:21.546Z,11.50
2018-03-31T08:36:49.055Z,12.10
2018-03-31T08:39:16.544Z,12.65
2018-03-31T08:41:44.076Z,12.95
2018-03-31T08:44:12.308Z,13.00
2018-03-31T08:46:40.401Z,11.43
2018-03-31T08:49:08.715Z,12.07
2018-03-31T08:51:37.575Z,10.50
2018-03-31T08:54:05.850Z,11.33
2018-03-31T08:56:34.821Z,11.32
2018-03-31T08:59:02.320Z,11.82
2018-03-31T09:01:29.808Z,10.98
2018-03-31T09:03:57.356Z,11.15
2018-03-31T09:06:25.558Z,10.00
2018-03-31T09:08:53.158Z,10.55
2018-03-31T09:11:20.671Z,12.63
2018-03-31T09:13:49.689Z,11.73
2018-03-31T09:16:17.960Z,11.98
2018-03-31T09:18:46.222Z,13.30
2018-03-31T09:21:13.711Z,13.95
2018-03-31T09:23:41.167Z,13.62
2018-03-31T09:26:08.680Z,15.45
2018-03-31T09:28:37.647Z,12.30
2018-03-31T09:31:05.120Z,12.05
2018-03-31T09:33:32.624Z,12.18
2018-03-31T09:36:00.962Z,12.77
2018-03-31T09:38:28.446Z,10.90
2018-03-31T09:40:56.789Z,12.07
2018-03-31T09:43:24.363Z,10.30
2018-03-31T09:45:52.640Z,10.30
2018-03-31T09:48:20.954Z,9.77
2018-03-31T09:50:49.253Z,10.70
2018-03-31T09:53:16.773Z,8.70
2018-03-31T09:55:45.091Z,9.93
2018-03-31T09:58:12.607Z,7.17
2018-03-31T10:00:40.836Z,6.73
2018-03-31T10:03:08.328Z,7.13
2018-03-31T10:05:36.639Z,6.97
2018-03-31T10:08:04.302Z,5.83
2018-03-31T10:10:31.988Z,5.10
2018-03-31T10:12:59.730Z,5.43
2018-03-31T10:15:27.204Z,6.70
2018-03-31T10:17:54.859Z,6.20
2018-03-31T10:20:22.370Z,5.83
2018-03-31T10:22:50.860Z,6.90
2018-03-31T10:25:19.324Z,6.00
2018-03-31T10:27:47.611Z,5.27
2018-03-31T10:30:15.912Z,5.97
2018-03-31T10:32:43.376Z,6.70
2018-03-31T10:35:10.903Z,5.00
2018-03-31T10:37:38.382Z,6.10
2018-03-31T10:40:06.046Z,5.00
2018-03-31T10:42:33.504Z,5.13
2018-03-31T10:45:01.062Z,5.10
2018-03-31T10:47:28.596Z,2.87
2018-03-31T10:49:55.999Z,3.23
2018-03-31T10:52:23.483Z,3.77
2018-03-31T10:54:51.735Z,4.20
2018-03-31T10:57:20.773Z,4.47
2018-03-31T10:59:48.254Z,3.47
2018-03-31T11:02:15.767Z,3.20
2018-03-31T11:04:44.044Z,3.60
2018-03-31T11:07:12.283Z,3.10
2018-03-31T11:09:39.784Z,3.20
2018-03-31T11:12:07.305Z,2.90
2018-03-31T11:14:34.790Z,3.13
2018-03-31T11:17:03.009Z,2.07
2018-03-31T11:19:30.501Z,2.13
2018-03-31T11:21:58.241Z,2.70
2018-03-31T11:24:25.730Z,3.73
2018-03-31T11:26:54.335Z,3.50
2018-03-31T11:29:21.835Z,3.70
2018-03-31T11:31:49.336Z,3.53
2018-03-31T11:34:17.583Z,2.33
2018-03-31T11:36:45.090Z,3.23
2018-03-31T11:39:12.679Z,2.50
2018-03-31T11:41:40.219Z,2.17
2018-03-31T11:44:07.869Z,3.93
2018-03-31T11:46:35.414Z,1.90
2018-03-31T11:49:02.943Z,2.70
2018-03-31T11:51:30.480Z,1.50
2018-03-31T11:53:58.070Z,1.53
2018-03-31T11:56:26.332Z,1.83
2018-03-31T11:58:53.815Z,2.10
2018-03-31T12:01:21.302Z,1.83
2018-03-31T12:03:48.935Z,1.83
2018-03-31T12:06:16.834Z,2.47
2018-03-31T12:08:44.315Z,1.87
2018-03-31T12:11:11.790Z,1.73
2018-03-31T12:13:39.277Z,2.60
2018-03-31T12:16:06.784Z,2.80
2018-03-31T12:18:34.311Z,2.20
2018-03-31T12:21:02.239Z,2.10
2018-03-31T12:23:30.673Z,2.07
2018-03-31T12:25:58.243Z,2.03
2018-03-31T12:28:26.601Z,1.43
2018-03-31T12:30:54.083Z,1.50
2018-03-31T12:33:21.564Z,1.37
2018-03-31T12:35:49.885Z,2.10
2018-03-31T12:38:17.546Z,2.30
2018-03-31T12:40:45.017Z,2.37
2018-03-31T12:43:12.523Z,2.40
2018-03-31T12:45:40.812Z,2.43
2018-03-31T12:48:08.299Z,2.20
2018-03-31T12:50:35.875Z,2.37
2018-03-31T12:53:03.414Z,2.35
2018-03-31T12:55:31.070Z,2.50
2018-03-31T12:57:58.727Z,2.60
2018-03-31T13:00:26.201Z,2.50
2018-03-31T13:02:53.907Z,2.83
2018-03-31T13:05:21.398Z,3.30
2018-03-31T13:07:49.049Z,2.70
2018-03-31T13:10:16.627Z,2.05
2018-03-31T13:12:44.221Z,2.05
2018-03-31T13:15:12.534Z,2.10
2018-03-31T13:17:40.057Z,2.00
2018-03-31T13:20:07.545Z,1.80
2018-03-31T13:22:35.025Z,1.40
2018-03-31T13:25:02.533Z,1.90
2018-03-31T13:27:30.920Z,1.70
2018-03-31T13:29:58.448Z,1.90
2018-03-31T13:32:25.940Z,1.58
2018-03-31T13:34:53.615Z,1.58
2018-03-31T13:37:21.171Z,1.73
2018-03-31T13:39:48.763Z,2.10
2018-03-31T13:42:16.319Z,1.85
2018-03-31T13:44:43.938Z,2.33
2018-03-31T13:47:11.373Z,2.10
2018-03-31T13:49:39.621Z,2.35
2018-03-31T13:52:07.110Z,2.37
2018-03-31T13:54:35.403Z,1.52
2018-03-31T13:57:02.880Z,1.90
2018-03-31T13:59:30.354Z,1.98
2018-03-31T14:01:57.935Z,1.60
2018-03-31T14:04:25.491Z,1.77
2018-03-31T14:06:52.972Z,1.95
2018-03-31T14:09:21.398Z,1.00
2018-03-31T14:11:49.618Z,1.10
2018-03-31T14:14:17.088Z,1.00
2018-03-31T14:16:45.333Z,1.25
2018-03-31T14:19:13.587Z,1.52
2018-03-31T14:21:41.474Z,1.90
2018-03-31T14:24:10.390Z,1.45
2018-03-31T14:26:38.618Z,1.83
2018-03-31T14:29:06.366Z,1.70
2018-03-31T14:31:33.849Z,0.85
2018-03-31T14:34:01.372Z,1.30
2018-03-31T14:36:28.858Z,1.10
2018-03-31T14:38:56.395Z,0.90
2018-03-31T14:41:23.878Z,1.20
2018-03-31T14:43:51.409Z,1.60
2018-03-31T14:46:18.950Z,1.20
2018-03-31T14:48:46.421Z,1.00
2018-03-31T14:51:13.920Z,1.08
2018-03-31T14:53:41.395Z,1.10
2018-03-31T14:56:09.652Z,0.90
2018-03-31T14:58:37.160Z,1.02
2018-03-31T15:01:04.759Z,1.00
2018-03-31T15:03:32.240Z,0.85
2018-03-31T15:06:00.531Z,0.90
2018-03-31T15:08:28.066Z,1.08
2018-03-31T15:10:56.353Z,1.15
2018-03-31T15:13:23.940Z,1.00
2018-03-31T15:15:51.567Z,1.00
2018-03-31T15:18:19.836Z,0.90
2018-03-31T15:20:48.370Z,1.10
2018-03-31T15:23:17.008Z,1.05
2018-03-31T15:25:45.278Z,1.55
2018-03-31T15:28:12.793Z,1.10
2018-03-31T15:30:40.390Z,1.00
2018-03-31T15:33:07.888Z,1.10
2018-03-31T15:35:35.421Z,1.10
2018-03-31T15:38:02.908Z,1.57
2018-03-31T15:40:30.409Z,0.90
2018-03-31T15:42:58.638Z,0.80
2018-03-31T15:45:26.751Z,0.80
2018-03-31T15:47:54.273Z,1.00
2018-03-31T15:50:22.655Z,0.93
2018-03-31T15:52:50.178Z,0.93
2018-03-31T15:55:17.674Z,1.00
2018-03-31T15:57:45.228Z,1.00
2018-03-31T16:00:12.731Z,0.90
2018-03-31T16:02:41.043Z,0.98
2018-03-31T16:05:08.506Z,0.80
2018-03-31T16:07:36.072Z,1.00
2018-03-31T16:10:03.540Z,1.27
2018-03-31T16:12:31.146Z,0.90
2018-03-31T16:14:59.472Z,0.80
2018-03-31T16:17:26.973Z,0.95
2018-03-31T16:19:54.439Z,1.00
2018-03-31T16:22:22.013Z,1.02
2018-03-31T16:24:49.492Z,1.42
2018-03-31T16:27:17.005Z,1.02
2018-03-31T16:29:45.321Z,1.00
2018-03-31T16:32:12.782Z,0.90
2018-03-31T16:34:40.362Z,1.77
2018-03-31T16:37:07.998Z,1.00
2018-03-31T16:39:35.502Z,1.00
2018-03-31T16:42:03.771Z,0.80
2018-03-31T16:44:31.298Z,0.80
2018-03-31T16:46:58.771Z,1.10
2018-03-31T16:49:26.247Z,0.80
2018-03-31T16:51:53.727Z,0.70
2018-03-31T16:54:21.191Z,1.00
2018-03-31T16:56:48.689Z,1.00
2018-03-31T16:59:16.160Z,0.93
2018-03-31T17:01:43.678Z,0.82
2018-03-31T17:04:11.171Z,0.80
2018-03-31T17:06:38.676Z,0.90
2018-03-31T17:09:06.780Z,0.80
2018-03-31T17:11:34.286Z,1.17
2018-03-31T17:14:02.572Z,1.35
2018-03-31T17:16:30.119Z,1.02
2018-03-31T17:18:57.630Z,1.23
2018-03-31T17:21:25.136Z,1.67
2018-03-31T17:23:53.373Z,1.40
2018-03-31T17:26:20.836Z,1.30
2018-03-31T17:28:48.554Z,1.25
2018-03-31T17:31:16.036Z,1.02
2018-03-31T17:33:43.692Z,0.82
2018-03-31T17:36:11.158Z,2.17
2018-03-31T17:38:38.655Z,1.70
2018-03-31T17:41:06.926Z,1.95
2018-03-31T17:43:35.151Z,2.25
2018-03-31T17:46:02.651Z,1.77
2018-03-31T17:48:30.892Z,2.22
2018-03-31T17:50:58.378Z,2.00
2018-03-31T17:53:26.612Z,2.35
2018-03-31T17:55:54.147Z,2.30
2018-03-31T17:58:21.644Z,1.77
2018-03-31T18:00:49.154Z,2.03
2018-03-31T18:03:16.676Z,1.45
2018-03-31T18:05:44.225Z,2.03
2018-03-31T18:08:11.699Z,2.28
2018-03-31T18:10:39.354Z,2.15
2018-03-31T18:13:06.826Z,1.85
2018-03-31T18:15:35.138Z,1.90
2018-03-31T18:18:02.625Z,1.20
2018-03-31T18:20:30.091Z,1.77
2018-03-31T18:22:57.587Z,1.27
2018-03-31T18:25:25.061Z,1.45
2018-03-31T18:27:52.631Z,1.10
2018-03-31T18:30:20.098Z,1.20
2018-03-31T18:32:47.621Z,1.35
2018-03-31T18:35:15.074Z,0.90
2018-03-31T18:37:42.755Z,1.10
2018-03-31T18:40:10.271Z,0.98
2018-03-31T18:42:38.516Z,0.90
2018-03-31T18:45:06.786Z,0.93
2018-03-31T18:47:34.298Z,0.90
2018-03-31T18:50:01.766Z,1.75
2018-03-31T18:52:29.343Z,0.80
2018-03-31T18:54:56.976Z,0.90
2018-03-31T18:57:24.545Z,1.00
2018-03-31T18:59:52.041Z,1.52
2018-03-31T19:02:19.666Z,1.02
2018-03-31T19:04:47.226Z,1.10
2018-03-31T19:07:14.876Z,1.55
2018-03-31T19:09:42.407Z,1.62
2018-03-31T19:12:10.639Z,1.27
2018-03-31T19:14:43.187Z,1.30
2018-03-31T19:17:15.146Z,1.30
2018-03-31T19:19:42.619Z,1.58
2018-03-31T19:22:10.077Z,1.90
2018-03-31T19:24:43.656Z,1.50
2018-03-31T19:27:11.285Z,1.80
2018-03-31T19:29:39.560Z,1.92
2018-03-31T19:32:07.800Z,2.20
2018-03-31T19:34:35.328Z,2.20
2018-03-31T19:37:03.529Z,1.85
2018-03-31T19:39:36.497Z,2.05
2018-03-31T19:42:03.998Z,1.60
2018-03-31T19:44:32.271Z,2.08
2018-03-31T19:47:00.519Z,1.80
2018-03-31T19:49:28.009Z,2.30
2018-03-31T19:51:56.283Z,1.48
2018-03-31T19:54:24.532Z,1.10
2018-03-31T19:56:52.032Z,1.70
2018-03-31T19:59:19.527Z,1.45
2018-03-31T20:01:47.027Z,1.58
2018-03-31T20:04:15.281Z,1.17
2018-03-31T20:06:42.768Z,1.80
2018-03-31T20:09:10.992Z,1.98
2018-03-31T20:11:38.509Z,1.77
2018-03-31T20:14:06.181Z,1.50
2018-03-31T20:16:33.719Z,2.28
2018-03-31T20:19:01.968Z,1.80
2018-03-31T20:21:29.586Z,1.27
2018-03-31T20:23:57.068Z,2.67
2018-03-31T20:26:24.561Z,2.08
2018-03-31T20:28:52.070Z,1.52
2018-03-31T20:31:20.448Z,2.67
2018-03-31T20:33:47.940Z,2.03
2018-03-31T20:36:15.418Z,2.10
2018-03-31T20:38:43.322Z,1.60
2018-03-31T20:41:10.820Z,1.62
2018-03-31T20:43:38.287Z,2.28
2018-03-31T20:46:06.536Z,2.67
2018-03-31T20:48:34.043Z,2.30
2018-03-31T20:51:01.551Z,2.30
2018-03-31T20:53:29.074Z,2.00
2018-03-31T20:55:56.572Z,2.55
2018-03-31T20:58:24.817Z,2.10
2018-03-31T21:00:52.352Z,2.53
2018-03-31T21:03:19.884Z,3.45
2018-03-31T21:05:48.144Z,2.72
2018-03-31T21:08:16.381Z,2.33
2018-03-31T21:10:43.858Z,1.90
2018-03-31T21:13:11.350Z,2.28
2018-03-31T21:15:38.859Z,2.47
2018-03-31T21:18:06.396Z,1.80
2018-03-31T21:20:34.188Z,1.95
2018-03-31T21:23:01.681Z,2.10
2018-03-31T21:25:29.164Z,1.90
2018-03-31T21:27:56.693Z,2.37
2018-03-31T21:30:24.937Z,2.53
2018-03-31T21:32:52.410Z,3.62
2018-03-31T21:35:19.938Z,3.05
2018-03-31T21:37:47.393Z,2.08
2018-03-31T21:40:14.980Z,2.58
2018-03-31T21:42:42.518Z,2.45
2018-03-31T21:45:09.981Z,2.72
2018-03-31T21:47:37.508Z,2.70
2018-03-31T21:50:05.184Z,2.25
2018-03-31T21:52:32.803Z,2.22
2018-03-31T21:55:00.481Z,1.87
2018-03-31T21:57:28.051Z,2.65
2018-03-31T21:59:56.333Z,2.28
2018-03-31T22:02:23.794Z,2.95
2018-03-31T22:04:51.285Z,2.00
2018-03-31T22:07:19.520Z,2.17
2018-03-31T22:09:47.017Z,2.37
2018-03-31T22:12:14.496Z,2.25
2018-03-31T22:14:47.422Z,2.53
2018-03-31T22:17:14.887Z,2.25
2018-03-31T22:19:42.496Z,2.28
2018-03-31T22:22:09.997Z,2.58
2018-03-31T22:24:37.468Z,2.55
2018-03-31T22:27:04.964Z,2.05
2018-03-31T22:29:32.453Z,2.00
2018-03-31T22:32:00.009Z,2.70
2018-03-31T22:34:27.645Z,3.17
2018-03-31T22:36:55.326Z,2.42
2018-03-31T22:39:22.957Z,1.90
2018-03-31T22:41:50.447Z,2.62
2018-03-31T22:44:17.950Z,2.80
2018-03-31T22:46:46.204Z,3.40
2018-03-31T22:49:13.799Z,4.32
2018-03-31T22:51:41.265Z,3.92
2018-03-31T22:54:08.756Z,4.43
2018-03-31T22:56:36.216Z,4.32
2018-03-31T22:59:03.730Z,3.55
2018-03-31T23:01:31.201Z,3.10
2018-03-31T23:03:58.809Z,4.25
2018-03-31T23:06:26.303Z,3.78
2018-03-31T23:08:53.823Z,3.40
2018-03-31T23:11:21.543Z,3.08
2018-03-31T23:13:49.018Z,3.05
2018-03-31T23:16:16.681Z,2.95
2018-03-31T23:18:44.180Z,3.30
2018-03-31T23:21:12.495Z,2.62
2018-03-31T23:23:40.170Z,3.00
2018-03-31T23:26:07.677Z,2.92
2018-03-31T23:28:35.941Z,3.15
2018-03-31T23:31:03.419Z,3.53
2018-03-31T23:33:30.901Z,3.25
2018-03-31T23:35:58.569Z,2.30
2018-03-31T23:38:26.076Z,2.25
2018-03-31T23:40:54.408Z,2.03
2018-03-31T23:43:21.923Z,2.35
2018-03-31T23:45:49.379Z,2.65
2018-03-31T23:48:17.648Z,2.65
2018-03-31T23:50:45.870Z,2.00
2018-03-31T23:53:13.349Z,3.17
2018-03-31T23:55:40.907Z,2.90
2018-03-31T23:58:08.397Z,2.72
